Ulsteinvik  Ulsteinvik


Beaufortskalaen  Beaufortskalaen


Clouds and precipitation  Clouds and precipitation


varsel for Snø/Is more information rain snow radar


Snø/Is Fra: 21-01-2020 04:00 Til: 22-01-2020 11:00 Advarsel for: Snø/Is Nivå: Gult info button

Nære METAR rapporter

   
ENAL - Ålesund
oppdatert: 21-01-2020 16:50
Byger, Nedbør, Tordenbyge, For det meste skyet  
Byger, Nedbør, Tordenbyge, For det meste skyet  
   Vind: VEST 13.4 m/s<br />Gust to 13.4 m/s
Vind: VEST 13.4 m/s
Gust to 13.4 m/s
Temperatur: 5°C
Wind Chill: -1°C
Duggpunkt: 2°C
Fuktighet: 81%
Barometer: 1021 hPa
Skyer: For det meste skyet
Sikt: 9 km
Skydetaljer: Delvis Skyet 518.2 m,
For det meste skyet 914.4 m
ENAL 211550Z 26026G36KT 9000 SHRA TS SCT017CB BKN030 05/02 Q1021
ENOV - Ørsta
oppdatert: 21-01-2020 16:20
Spredte Regnbyger, Nedbør, For det meste skyet  
Spredte Regnbyger, Nedbør, For det meste skyet  
   Vind: varierer 4.6 m/s
Vind: varierer 4.6 m/s
Temperatur: 4°C
Wind Chill: 0°C
Duggpunkt: 1°C
Fuktighet: 81%
Barometer: 1023 hPa
Skyer: For det meste skyet
Sikt: More than 10 km
Skydetaljer: få skyer 518.2 m,
For det meste skyet 762 m
ENOV 211520Z VRB09KT 9999 -SHRA FEW017 BKN025 04/01 Q1023 RMK WIND 2175FT 26025G36KT
ENML - Tafjorden
oppdatert: 21-01-2020 16:20
Spredte Regnbyger, Nedbør, For det meste skyet  
Spredte Regnbyger, Nedbør, For det meste skyet  
   Vind: VSV 17 m/s
Vind: VSV 17 m/s
Temperatur: 5°C
Wind Chill: -2°C
Duggpunkt: 2°C
Fuktighet: 81%
Barometer: 1019 hPa
Skyer: For det meste skyet
Sikt: More than 10 km
Skydetaljer: få skyer 365.8 m,
For det meste skyet 762 m
ENML 211520Z 25033KT 9999 -SHRA FEW012 BKN025 05/02 Q1019
ENML - Molde
oppdatert: 21-01-2020 16:20
Spredte Regnbyger, Nedbør, For det meste skyet  
Spredte Regnbyger, Nedbør, For det meste skyet  
   Vind: VSV 17 m/s
Vind: VSV 17 m/s
Temperatur: 5°C
Wind Chill: -2°C
Duggpunkt: 2°C
Fuktighet: 81%
Barometer: 1019 hPa
Skyer: For det meste skyet
Sikt: More than 10 km
Skydetaljer: få skyer 365.8 m,
For det meste skyet 762 m
ENML 211520Z 25033KT 9999 -SHRA FEW012 BKN025 05/02 Q1019
ENFL - Florø
oppdatert: 21-01-2020 16:20
Spredte Regnbyger, Nedbør, For det meste skyet  
Spredte Regnbyger, Nedbør, For det meste skyet  
   Vind: VEST 10.3 m/s<br />Gust to 10.3 m/s
Vind: VEST 10.3 m/s
Gust to 10.3 m/s
Temperatur: 6°C
Wind Chill: 1°C
Duggpunkt: 2°C
Fuktighet: 76%
Barometer: 1026 hPa
Skyer: For det meste skyet
Sikt: More than 10 km
Skydetaljer: få skyer 548.6 m,
Delvis Skyet 914.4 m,
For det meste skyet 1371.6 m
ENFL 211520Z 26020G32KT 9999 5000E -SHRA FEW018CB SCT030 BKN045 06/02 Q1026 RERA
ENVA - Trondheim
oppdatert: 21-01-2020 16:50
Spredte Regnbyger, Nedbør, Snø, For det meste skyet  
Spredte Regnbyger, Nedbør, Snø, For det meste skyet  
   Vind: VEST 16.5 m/s
Vind: VEST 16.5 m/s
Temperatur: 3°C
Wind Chill: -4°C
Duggpunkt: 1°C
Fuktighet: 87%
Barometer: 1014 hPa
Skyer: For det meste skyet
Sikt: 7 km
Skydetaljer: få skyer 243.8 m,
Delvis Skyet 548.6 m,
For det meste skyet 1005.8 m
ENVA 211550Z 28032KT 7000 -SHRASN FEW008 SCT018 BKN033 03/01 Q1014 TEMPO 28032G44KT 3000 SHSNRA VV012 RMK WIND 670FT 28027G46KT
ENBR - Bergen
oppdatert: 21-01-2020 16:50
For det meste skyet  
For det meste skyet  
   Vind: VNV 2.6 m/s
Vind: VNV 2.6 m/s
Temperatur: 5°C
Wind Chill: 3°C
Duggpunkt: 4°C
Fuktighet: 93%
Barometer: 1029 hPa
Skyer: For det meste skyet
Sikt: More than 10 km
Skydetaljer: få skyer 457.2 m,
Delvis Skyet 762 m,
For det meste skyet 1676.4 m
ENBR 211550Z 30005KT 240V350 9999 FEW015 SCT025 BKN055 05/04 Q1029 TEMPO 30015G25KT SHRA BKN014 RMK WIND 1200FT 28016
ENZV - Stavanger
oppdatert: 21-01-2020 16:50
Regn i nærheten, Delvis Skyet  
Regn i nærheten, Delvis Skyet  
   Vind: VNV 7.7 m/s
Vind: VNV 7.7 m/s
Temperatur: 6°C
Wind Chill: 2°C
Duggpunkt: 3°C
Fuktighet: 81%
Barometer: 1031 hPa
Skyer: Delvis Skyet
Sikt: More than 10 km
Skydetaljer: få skyer 701 m,
Delvis Skyet 1463 m
ENZV 211550Z 30015KT 9999 VCSH FEW023TCU SCT048 06/03 Q1031 TEMPO 32018G28KT
ENGM - Oslo
oppdatert: 21-01-2020 16:50
Klart  
Klart  
   Vind: Sør 2.1 m/s
Vind: Sør 2.1 m/s
Temperatur: 4°C
Wind Chill: 2°C
Duggpunkt: -4°C
Fuktighet: 56%
Barometer: 1019 hPa
Sikt: More than 10 km
Skydetaljer: Klart
ENGM 211550Z 18004KT CAVOK 04/M04 Q1019 NOSIG
ESSA - Stockholm
oppdatert: 21-01-2020 16:20
Klart  
Klart  
   Vind: VEST 6.2 m/s
Vind: VEST 6.2 m/s
Temperatur: 6°C
Wind Chill: 2°C
Duggpunkt: 0°C
Fuktighet: 66%
Barometer: 1018 hPa
Sikt: More than 10 km
Skydetaljer: Klart
ESSA 211520Z 27012KT CAVOK 06/00 Q1018 R01L/19//95 R08/19//95 R01R/19//95 NOSIG
EKCH - København
oppdatert: 21-01-2020 16:20
Overskyet  
Overskyet  
   Vind: VEST 6.7 m/s
Vind: VEST 6.7 m/s
Temperatur: 8°C
Wind Chill: 4°C
Duggpunkt: 6°C
Fuktighet: 87%
Barometer: 1031 hPa
Skyer: Overskyet
Sikt: More than 10 km
Skydetaljer: Overskyet 304.8 m
EKCH 211520Z 28013KT 9999 OVC010 08/06 Q1031 BECMG BKN008
ENHV - Nordkapp
oppdatert: 21-01-2020 15:50
Blowing, Snø, For det meste skyet  
Blowing, Snø, For det meste skyet  
   Vind: VEST 11.3 m/s<br />Gust to 11.3 m/s
Vind: VEST 11.3 m/s
Gust to 11.3 m/s
Temperatur: 0°C
Wind Chill: -7°C
Duggpunkt: 0°C
Fuktighet: 100%
Barometer: 978 hPa
Skyer: For det meste skyet
Sikt: 2 km
Skydetaljer: Delvis Skyet 243.8 m,
For det meste skyet 457.2 m
ENHV 211450Z 28022G32KT 2000 BLSN SCT008 BKN015 00/M00 Q0978
ENSB - Svalbard
oppdatert: 21-01-2020 16:50
få skyer  
få skyer  
   Vind: NØ 8.2 m/s
Vind: NØ 8.2 m/s
Temperatur: -13°C
Wind Chill: -23°C
Duggpunkt: -18°C
Fuktighet: 66%
Barometer: 1000 hPa
Skyer: få skyer
Sikt: More than 10 km
Skydetaljer: få skyer 914.4 m
ENSB 211550Z 05016KT 9999 FEW030 M13/M18 Q1000 RMK WIND 1400FT 05013KT
NZSP - Sørpolen
oppdatert: 21-01-2020 16:25
Lette snøkorn, Dis, Overskyet  
Lette snøkorn, Dis, Overskyet  
   Vind: Øst 1.5 m/s
Vind: Øst 1.5 m/s
Temperatur: -26°C
Wind Chill: -32°C
Barometer: 985.8 hPa
Skyer: Overskyet
Sikt: 3.2 km
Skydetaljer: Overskyet 30.5 m
NZSP 211525Z 09003KT 3200 -SG BR VV001 M26/ A2911 RMK CLN AIR 00000KT ALL WNDS GRID SDP/HDN
 

Script utviklet av  Saratoga-weather.org Tilrettelagt for malen av  Weerstation Leuven

Utstyr vi bruker:

Værstsjon
Davis VP2+ 24/H Fars, Online-Ups, 4G Backup.

Værprogram
Weather Display

Ekstra utstyr
Custom builds pcs

Provider
Hosted By Pro Isp

Davis VP2+ 24/H Fars, Online-Ups, 4G Backup.

Weather Display

Custom builds pcs

Hosted By Pro Isp